Time;durP1;ratioP1;P1;durP2;ratioP2;P2;SDS_P1;SDS_P2;PMS_P1;PMS_P2;Temp;Humidity;BMP_temperature;BMP_pressure;BME280_temperature;BME280_humidity;BME280_pressure;Samples;Min_cycle;Max_cycle;Signal;HPM_P1;HPM_P2
2023/06/30 00:05:47;;;;;;;2.03;1.00;;;25.80;76.90;;;;;;10753043;33;20047;-73
2023/06/30 00:11:50;;;;;;;2.50;1.37;;;25.80;76.60;;;;;;10739948;33;20051;-73
2023/06/30 00:17:52;;;;;;;1.10;0.95;;;25.80;76.80;;;;;;10739893;33;20048;-73
2023/06/30 00:24:01;;;;;;;1.73;1.23;;;25.70;77.00;;;;;;10752610;33;20025;-73
2023/06/30 00:30:04;;;;;;;1.40;1.10;;;25.60;77.00;;;;;;10752304;33;20047;-73
2023/06/30 00:36:06;;;;;;;1.67;1.20;;;25.50;77.10;;;;;;10752241;33;20048;-73
2023/06/30 00:42:09;;;;;;;1.70;1.37;;;25.50;77.20;;;;;;10752017;33;20013;-73
2023/06/30 00:48:11;;;;;;;3.92;1.45;;;25.40;77.10;;;;;;10751880;33;20024;-73
2023/06/30 00:54:14;;;;;;;1.80;1.08;;;25.50;76.90;;;;;;10749565;33;20055;-73
2023/06/30 01:00:17;;;;;;;3.20;1.33;;;25.40;77.10;;;;;;10749281;33;20407;-73
2023/06/30 01:06:21;;;;;;;1.87;1.20;;;25.30;77.10;;;;;;10751501;33;20048;-73
2023/06/30 01:12:26;;;;;;;2.20;1.53;;;25.30;77.10;;;;;;10726169;33;20434;-73
2023/06/30 01:18:36;;;;;;;4.20;2.00;;;25.30;77.00;;;;;;10751263;33;20025;-73
2023/06/30 01:24:41;;;;;;;1.37;1.20;;;25.30;76.90;;;;;;10737767;33;20043;-73
2023/06/30 01:30:43;;;;;;;3.97;2.22;;;25.10;77.10;;;;;;10750899;33;20052;-73
2023/06/30 01:36:48;;;;;;;2.12;1.58;;;25.00;77.20;;;;;;10750899;33;20035;-73
2023/06/30 01:42:54;;;;;;;4.37;1.75;;;25.00;77.30;;;;;;10750772;33;20048;-73
2023/06/30 01:48:56;;;;;;;2.95;1.67;;;25.00;77.50;;;;;;10746874;33;20047;-73
2023/06/30 01:54:59;;;;;;;2.12;1.40;;;24.90;77.50;;;;;;10750447;33;20021;-73
2023/06/30 02:01:01;;;;;;;2.70;1.50;;;24.80;77.20;;;;;;10753406;33;20017;-73
2023/06/30 02:07:04;;;;;;;1.85;1.30;;;24.80;77.70;;;;;;10730966;33;20387;-73
2023/06/30 02:13:06;;;;;;;4.50;1.90;;;24.80;77.60;;;;;;10743361;33;20024;-73
2023/06/30 02:19:08;;;;;;;2.35;1.77;;;24.80;77.50;;;;;;10756266;33;20433;-74
2023/06/30 02:25:09;;;;;;;4.00;1.50;;;24.80;77.50;;;;;;10753791;33;20024;-74
2023/06/30 02:31:11;;;;;;;2.58;1.33;;;24.80;77.50;;;;;;10751903;33;20399;-74
2023/06/30 02:37:14;;;;;;;3.33;2.12;;;24.70;77.80;;;;;;10755691;33;20047;-74
2023/06/30 02:43:16;;;;;;;2.85;1.80;;;24.60;78.00;;;;;;10755480;33;20044;-73
2023/06/30 02:49:18;;;;;;;1.80;1.35;;;24.50;78.00;;;;;;10755166;33;20021;-73
2023/06/30 02:55:21;;;;;;;2.75;1.60;;;24.30;78.10;;;;;;10755023;33;20017;-73
2023/06/30 03:01:24;;;;;;;2.75;1.83;;;24.30;78.20;;;;;;10755060;33;20078;-73
2023/06/30 03:07:27;;;;;;;1.77;1.37;;;24.30;78.10;;;;;;10754909;33;20021;-73
2023/06/30 03:13:29;;;;;;;2.90;2.00;;;24.30;77.90;;;;;;10754534;33;20032;-73
2023/06/30 03:19:32;;;;;;;2.08;1.60;;;24.30;77.60;;;;;;10754484;33;20586;-73
2023/06/30 03:25:35;;;;;;;3.12;1.90;;;24.30;77.60;;;;;;10754303;33;20399;-73
2023/06/30 03:31:44;;;;;;;4.30;2.55;;;24.40;77.80;;;;;;10740767;33;20040;-73
2023/06/30 03:37:54;;;;;;;2.67;1.70;;;24.40;77.50;;;;;;10754043;33;20039;-73
2023/06/30 03:44:07;;;;;;;4.15;2.35;;;24.20;77.70;;;;;;10753957;33;20417;-73
2023/06/30 03:50:09;;;;;;;2.80;1.70;;;24.30;77.20;;;;;;10753576;33;20327;-73
2023/06/30 03:56:24;;;;;;;3.12;2.12;;;24.30;76.70;;;;;;10753503;33;20358;-73
2023/06/30 04:02:26;;;;;;;4.07;2.03;;;24.40;76.80;;;;;;10753326;33;20012;-73
2023/06/30 04:08:29;;;;;;;3.53;2.12;;;24.30;77.00;;;;;;10753074;33;20407;-73
2023/06/30 04:14:31;;;;;;;3.20;2.20;;;24.30;76.80;;;;;;10752599;33;20028;-73
2023/06/30 04:20:33;;;;;;;3.28;1.98;;;24.30;77.00;;;;;;10752760;33;20462;-73
2023/06/30 04:26:35;;;;;;;3.65;2.25;;;24.20;77.30;;;;;;10751960;33;20089;-73
2023/06/30 04:32:37;;;;;;;4.43;2.85;;;24.20;77.60;;;;;;10752199;33;20067;-73
2023/06/30 04:38:39;;;;;;;4.03;2.60;;;24.20;77.70;;;;;;10748371;33;20051;-73
2023/06/30 04:44:42;;;;;;;3.97;2.22;;;24.30;77.60;;;;;;10752076;33;20017;-73
2023/06/30 04:50:44;;;;;;;3.62;2.22;;;24.40;77.50;;;;;;10751869;33;20039;-73
2023/06/30 04:56:46;;;;;;;2.95;2.05;;;24.50;77.60;;;;;;10751842;33;20025;-73
2023/06/30 05:02:49;;;;;;;5.22;2.33;;;24.60;78.10;;;;;;10739443;32;20024;-74
2023/06/30 05:08:50;;;;;;;5.68;1.95;;;24.60;79.00;;;;;;10751412;33;20047;-73
2023/06/30 05:14:53;;;;;;;5.93;2.12;;;24.70;79.40;;;;;;10751361;33;20079;-74
2023/06/30 05:20:55;;;;;;;2.58;1.92;;;24.80;79.00;;;;;;10751134;33;20429;-74
2023/06/30 05:26:57;;;;;;;5.32;2.55;;;25.00;79.10;;;;;;10751121;33;20024;-73
2023/06/30 05:32:59;;;;;;;3.35;2.00;;;25.10;79.20;;;;;;10750931;33;20025;-74
2023/06/30 05:39:01;;;;;;;3.28;2.10;;;25.20;79.20;;;;;;10757027;33;20051;-74
2023/06/30 05:45:03;;;;;;;6.22;2.60;;;25.30;79.40;;;;;;10757186;33;20052;-74
2023/06/30 05:51:05;;;;;;;3.78;2.37;;;25.40;79.50;;;;;;10743750;33;20012;-75
2023/06/30 05:57:15;;;;;;;5.93;2.85;;;25.60;79.20;;;;;;10744696;32;20180;-74
2023/06/30 06:03:17;;;;;;;4.12;2.17;;;25.80;78.80;;;;;;10756711;33;20037;-74
2023/06/30 06:09:19;;;;;;;5.55;2.53;;;25.90;78.90;;;;;;10756305;33;20039;-74
2023/06/30 06:15:21;;;;;;;3.85;2.58;;;25.90;78.60;;;;;;10743312;33;20028;-74
2023/06/30 06:21:29;;;;;;;5.55;2.40;;;25.70;78.90;;;;;;10756071;33;20075;-74
2023/06/30 06:27:35;;;;;;;;;;;25.80;78.90;;;;;;10751779;33;20025;-74
2023/06/30 06:33:37;;;;;;;4.47;2.33;;;26.00;79.10;;;;;;10753517;33;19928;-74
2023/06/30 06:39:39;;;;;;;3.62;2.03;;;26.10;79.40;;;;;;10753601;33;20025;-75
2023/06/30 06:45:44;;;;;;;3.53;1.65;;;26.30;79.00;;;;;;10753049;33;20020;-74
2023/06/30 06:51:45;;;;;;;1.75;1.30;;;26.40;78.30;;;;;;10753127;33;20453;-75
2023/06/30 06:58:13;;;;;;;3.50;2.08;;;26.60;77.60;;;;;;10740741;32;20032;-75
2023/06/30 07:04:15;;;;;;;5.57;2.28;;;26.80;76.90;;;;;;10752972;33;20066;-75
2023/06/30 07:10:17;;;;;;;3.80;1.17;;;26.80;76.40;;;;;;10740324;33;20393;-74
2023/06/30 07:16:21;;;;;;;1.80;1.10;;;26.80;76.00;;;;;;10749035;33;20440;-75
2023/06/30 07:22:23;;;;;;;1.60;1.05;;;26.90;75.70;;;;;;10752313;33;20478;-74
2023/06/30 07:28:25;;;;;;;1.98;1.12;;;27.00;75.70;;;;;;10423560;27;12052580;-75
2023/06/30 07:34:29;;;;;;;1.75;1.08;;;27.10;75.20;;;;;;10814098;33;20066;-75
2023/06/30 07:40:31;;;;;;;2.65;1.58;;;27.30;74.60;;;;;;10817214;32;20154;-74
2023/06/30 07:46:58;;;;;;;2.53;1.52;;;27.30;73.30;;;;;;10822655;32;20455;-75
2023/06/30 07:53:03;;;;;;;2.22;1.08;;;27.20;73.10;;;;;;10803807;32;20104;-75
2023/06/30 07:59:05;;;;;;;1.98;0.95;;;27.20;73.30;;;;;;10868662;32;20058;-75
2023/06/30 08:05:07;;;;;;;5.45;1.37;;;27.10;73.20;;;;;;10869258;32;20046;-74
2023/06/30 08:11:09;;;;;;;1.35;1.05;;;27.20;72.50;;;;;;10868772;32;20016;-75
2023/06/30 08:17:11;;;;;;;1.40;0.90;;;27.20;72.00;;;;;;10868478;32;20050;-74
2023/06/30 08:23:36;;;;;;;2.35;1.10;;;27.30;72.00;;;;;;10867513;32;20020;-75
2023/06/30 08:29:38;;;;;;;2.17;1.25;;;27.30;71.30;;;;;;10777630;32;20033;-75
2023/06/30 08:35:40;;;;;;;7.65;1.37;;;27.30;71.30;;;;;;10716161;33;20430;-74
2023/06/30 08:41:43;;;;;;;1.55;1.02;;;27.30;71.20;;;;;;10712152;33;20403;-74
2023/06/30 08:47:46;;;;;;;2.12;1.37;;;27.30;70.90;;;;;;10715733;33;20434;-74
2023/06/30 08:53:49;;;;;;;3.00;1.60;;;27.40;70.90;;;;;;10715552;33;20029;-74
2023/06/30 08:59:51;;;;;;;2.45;1.27;;;27.60;69.80;;;;;;10715412;33;20025;-74
2023/06/30 09:05:58;;;;;;;1.70;1.12;;;27.60;68.80;;;;;;10715378;33;20171;-75
2023/06/30 09:12:00;;;;;;;;;;;27.80;68.50;;;;;;10715363;33;20391;-77
2023/06/30 09:18:02;;;;;;;3.72;1.70;;;28.20;67.30;;;;;;10764814;32;19927;-74
2023/06/30 09:24:05;;;;;;;2.10;1.27;;;28.60;66.60;;;;;;10714998;33;20383;-75
2023/06/30 09:30:07;;;;;;;1.27;0.95;;;28.70;66.00;;;;;;10764300;32;20029;-75
2023/06/30 09:36:16;;;;;;;2.22;1.00;;;28.80;66.40;;;;;;10710729;33;20013;-75
2023/06/30 09:42:20;;;;;;;1.25;1.00;;;28.80;66.00;;;;;;10714405;33;20036;-75
2023/06/30 09:48:32;;;;;;;5.37;1.35;;;28.80;65.20;;;;;;10713577;33;20047;-75
2023/06/30 09:54:36;;;;;;;1.75;1.20;;;28.90;63.70;;;;;;10714208;33;20053;-75
2023/06/30 10:00:41;;;;;;;1.85;1.33;;;29.00;63.70;;;;;;10713936;33;20017;-76
2023/06/30 10:06:43;;;;;;;5.07;1.40;;;29.10;63.20;;;;;;10763998;32;20025;-76
2023/06/30 10:12:49;;;;;;;3.60;1.27;;;29.00;62.40;;;;;;10714249;33;20052;-75
2023/06/30 10:18:53;;;;;;;5.65;1.35;;;29.00;63.70;;;;;;10713664;33;20328;-75
2023/06/30 10:24:55;;;;;;;1.70;1.10;;;29.30;62.90;;;;;;10769392;32;20079;-76
2023/06/30 10:30:58;;;;;;;2.35;1.50;;;29.50;61.60;;;;;;10765037;32;20036;-76
2023/06/30 10:37:01;;;;;;;1.70;1.20;;;29.70;63.90;;;;;;10715340;33;20025;-75
2023/06/30 10:43:06;;;;;;;0.98;0.68;;;29.70;62.10;;;;;;10768996;32;20071;-75
2023/06/30 10:49:19;;;;;;;1.87;0.93;;;29.70;61.20;;;;;;10769094;32;20417;-75
2023/06/30 10:55:25;;;;;;;2.25;1.10;;;29.60;62.80;;;;;;10768818;32;20297;-75
2023/06/30 11:01:28;;;;;;;3.73;1.33;;;29.30;63.50;;;;;;10718923;33;20442;-76
2023/06/30 11:07:30;;;;;;;1.52;0.82;;;29.30;63.10;;;;;;10718622;33;20021;-75
2023/06/30 11:13:40;;;;;;;2.22;1.50;;;29.30;63.00;;;;;;10718217;33;20025;-76
2023/06/30 11:20:16;;;;;;;3.42;2.05;;;29.30;63.60;;;;;;10718262;33;20429;-75
2023/06/30 11:26:18;;;;;;;2.97;1.67;;;29.20;63.10;;;;;;10723851;32;20017;-76
2023/06/30 11:32:30;;;;;;;1.27;0.90;;;29.10;63.00;;;;;;10868068;32;20201;-74
2023/06/30 11:38:42;;;;;;;2.92;1.40;;;28.90;63.60;;;;;;10870020;32;20028;-73
2023/06/30 11:44:44;;;;;;;6.37;1.50;;;28.80;64.30;;;;;;10869832;32;20074;-74
2023/06/30 11:50:53;;;;;;;2.35;1.17;;;28.50;64.60;;;;;;10869534;32;20019;-73
2023/06/30 11:56:58;;;;;;;5.82;1.42;;;28.30;66.40;;;;;;10869384;32;20028;-73
2023/06/30 12:03:02;;;;;;;3.70;1.23;;;28.20;65.60;;;;;;10869141;32;20043;-73
2023/06/30 12:09:06;;;;;;;1.58;1.10;;;28.10;66.10;;;;;;10868035;32;20304;-72
2023/06/30 12:15:13;;;;;;;0.70;0.70;;;27.90;65.90;;;;;;10875900;32;20026;-73
2023/06/30 12:21:15;;;;;;;2.30;1.15;;;28.00;65.90;;;;;;10905657;32;20093;-73
2023/06/30 12:27:19;;;;;;;1.50;0.98;;;28.00;65.80;;;;;;10874751;32;20338;-73
2023/06/30 12:33:22;;;;;;;1.80;1.00;;;28.00;64.80;;;;;;10800352;32;20055;-73
2023/06/30 12:39:24;;;;;;;2.33;1.30;;;28.10;66.10;;;;;;10752234;33;20063;-73
2023/06/30 12:45:28;;;;;;;1.55;0.80;;;28.00;66.10;;;;;;10750479;33;20021;-73
2023/06/30 12:51:30;;;;;;;1.05;0.82;;;28.10;67.20;;;;;;10751842;33;20032;-73
2023/06/30 12:58:19;;;;;;;0.95;0.62;;;28.10;66.50;;;;;;10789269;32;20358;-73
2023/06/30 13:04:21;;;;;;;3.70;2.80;;;28.20;66.50;;;;;;10801801;32;20063;-73
2023/06/30 13:10:23;;;;;;;9.40;6.07;;;28.10;66.80;;;;;;10751418;33;20415;-73
2023/06/30 13:16:25;;;;;;;10.10;8.38;;;28.00;68.00;;;;;;10751339;33;20091;-73
2023/06/30 13:22:27;;;;;;;5.55;4.30;;;28.00;67.80;;;;;;10751320;33;20021;-73
2023/06/30 13:28:30;;;;;;;4.93;3.75;;;28.00;67.30;;;;;;10751074;33;20024;-74
2023/06/30 13:34:32;;;;;;;9.18;8.27;;;28.10;67.00;;;;;;10799901;32;20037;-73
2023/06/30 13:40:34;;;;;;;10.07;9.02;;;28.30;68.50;;;;;;10750868;33;20024;-72
2023/06/30 13:46:40;;;;;;;11.60;9.57;;;28.00;69.70;;;;;;10750686;33;20024;-71
2023/06/30 13:52:42;;;;;;;10.55;9.45;;;27.80;69.90;;;;;;10750544;33;20024;-74
2023/06/30 13:58:44;;;;;;;7.60;5.22;;;27.90;68.30;;;;;;10755358;33;20225;-74
2023/06/30 14:04:46;;;;;;;4.93;3.85;;;28.10;66.70;;;;;;10756676;33;20044;-74
2023/06/30 14:10:48;;;;;;;4.68;3.17;;;28.20;66.50;;;;;;10756516;33;20025;-73
2023/06/30 14:16:50;;;;;;;4.78;3.33;;;28.20;66.60;;;;;;10756311;33;20042;-74
2023/06/30 14:23:08;;;;;;;3.05;2.03;;;28.20;67.40;;;;;;10756142;33;20029;-73
2023/06/30 14:29:10;;;;;;;4.25;2.97;;;28.30;67.10;;;;;;10756073;33;20434;-73
2023/06/30 14:35:12;;;;;;;6.53;3.75;;;28.30;67.50;;;;;;10806740;32;20048;-73
2023/06/30 14:41:14;;;;;;;6.80;3.40;;;28.30;67.20;;;;;;10755502;33;20044;-74
2023/06/30 14:47:16;;;;;;;8.48;4.32;;;28.30;68.00;;;;;;10755384;33;20040;-74
2023/06/30 14:53:18;;;;;;;7.55;5.18;;;28.30;67.80;;;;;;10755076;33;20012;-75
2023/06/30 14:59:21;;;;;;;5.62;3.10;;;28.30;68.70;;;;;;10751233;33;20021;-73
2023/06/30 15:05:31;;;;;;;7.47;4.40;;;28.10;69.60;;;;;;10754803;33;20043;-73
2023/06/30 15:11:35;;;;;;;5.75;3.60;;;28.10;69.30;;;;;;10754779;33;20064;-73
2023/06/30 15:17:37;;;;;;;6.18;3.75;;;28.00;69.70;;;;;;10752532;33;20324;-73
2023/06/30 15:23:39;;;;;;;8.55;3.65;;;27.90;70.10;;;;;;10792440;32;20040;-73
2023/06/30 15:29:41;;;;;;;10.00;2.45;;;27.80;71.40;;;;;;10871905;27;20026;-73
2023/06/30 15:35:44;;;;;;;5.28;3.53;;;27.70;71.80;;;;;;10944391;32;20018;-74
2023/06/30 15:41:45;;;;;;;4.80;3.45;;;27.70;71.50;;;;;;10945030;32;20055;-73
2023/06/30 15:47:48;;;;;;;15.05;2.70;;;27.70;71.60;;;;;;10944798;32;20333;-73
2023/06/30 15:53:50;;;;;;;5.87;3.60;;;27.70;71.80;;;;;;10944535;32;20018;-73
2023/06/30 15:59:52;;;;;;;5.43;2.70;;;27.60;72.10;;;;;;10943494;32;20023;-73
2023/06/30 16:05:54;;;;;;;4.60;2.58;;;27.60;72.40;;;;;;10944162;32;20023;-74
2023/06/30 16:12:25;;;;;;;6.22;2.80;;;27.60;72.60;;;;;;10943918;32;20050;-73
2023/06/30 16:18:27;;;;;;;2.72;1.95;;;27.50;72.50;;;;;;10943212;32;20033;-73
2023/06/30 16:24:30;;;;;;;3.08;1.98;;;27.50;73.00;;;;;;10943266;32;20023;-73
2023/06/30 16:30:33;;;;;;;6.43;3.17;;;27.50;73.10;;;;;;10828890;32;20402;-74
2023/06/30 16:36:35;;;;;;;5.28;2.83;;;27.50;72.90;;;;;;10788913;33;20050;-73
2023/06/30 16:42:41;;;;;;;5.60;3.30;;;27.50;73.00;;;;;;10838278;32;20059;-73
2023/06/30 16:48:43;;;;;;;4.65;2.47;;;27.40;72.80;;;;;;10788513;33;20012;-73
2023/06/30 16:54:45;;;;;;;2.55;1.37;;;27.30;72.70;;;;;;10838637;32;20437;-73
2023/06/30 17:00:47;;;;;;;3.28;1.42;;;27.30;72.70;;;;;;10784432;33;20035;-73
2023/06/30 17:06:49;;;;;;;2.97;2.20;;;27.30;73.70;;;;;;10838650;32;20012;-73
2023/06/30 17:12:51;;;;;;;1.55;1.10;;;27.30;74.60;;;;;;10838195;32;20025;-73
2023/06/30 17:18:54;;;;;;;2.85;1.58;;;27.00;74.80;;;;;;10787918;33;20016;-73
2023/06/30 17:24:56;;;;;;;3.47;1.62;;;26.80;75.20;;;;;;10787790;33;20052;-73
2023/06/30 17:30:58;;;;;;;1.50;1.37;;;26.80;75.80;;;;;;10787197;33;20102;-73
2023/06/30 17:37:01;;;;;;;2.33;1.40;;;26.80;76.20;;;;;;10840643;32;20025;-73
2023/06/30 17:43:03;;;;;;;2.25;1.45;;;26.70;76.90;;;;;;10793785;33;20020;-73
2023/06/30 17:49:19;;;;;;;1.70;0.95;;;26.70;77.40;;;;;;10844504;32;20152;-73
2023/06/30 17:55:22;;;;;;;1.40;1.10;;;26.70;77.50;;;;;;10831699;32;20350;-73
2023/06/30 18:01:24;;;;;;;3.53;1.42;;;26.70;77.70;;;;;;10791869;33;20025;-73
2023/06/30 18:07:26;;;;;;;3.37;1.42;;;26.70;77.70;;;;;;10793078;33;20074;-73
2023/06/30 18:13:33;;;;;;;3.00;1.70;;;26.70;78.10;;;;;;10792933;33;20051;-73
2023/06/30 18:19:38;;;;;;;2.33;1.83;;;26.60;78.30;;;;;;10843346;32;20060;-73
2023/06/30 18:25:40;;;;;;;2.00;1.50;;;26.50;78.70;;;;;;10792620;33;20035;-73
2023/06/30 18:31:42;;;;;;;3.25;1.70;;;26.40;79.20;;;;;;10792472;33;20025;-73
2023/06/30 18:37:44;;;;;;;3.87;1.62;;;26.30;79.10;;;;;;10792408;33;20150;-73
2023/06/30 18:43:47;;;;;;;5.28;2.15;;;26.30;79.20;;;;;;10791484;33;20471;-73
2023/06/30 18:49:49;;;;;;;4.70;1.65;;;26.30;78.80;;;;;;10788060;33;20035;-73
2023/06/30 18:55:50;;;;;;;1.70;1.23;;;26.30;79.30;;;;;;10787945;33;20024;-73
2023/06/30 19:01:52;;;;;;;2.00;1.35;;;26.30;79.20;;;;;;10791682;33;20012;-73
2023/06/30 19:07:54;;;;;;;2.90;1.87;;;26.20;78.90;;;;;;10842201;32;20395;-73
2023/06/30 19:13:56;;;;;;;3.58;1.40;;;26.20;78.90;;;;;;10791426;33;20225;-73
2023/06/30 19:19:58;;;;;;;1.35;0.93;;;26.30;78.80;;;;;;10790367;33;20039;-73
2023/06/30 19:26:00;;;;;;;3.28;1.17;;;26.30;78.60;;;;;;10790923;33;20387;-73
2023/06/30 19:32:02;;;;;;;0.82;0.80;;;26.30;78.60;;;;;;10790681;33;20028;-73
2023/06/30 19:38:06;;;;;;;3.03;1.48;;;26.20;78.70;;;;;;10841123;32;20020;-73
2023/06/30 19:44:07;;;;;;;3.83;1.17;;;26.10;79.00;;;;;;10790428;33;20322;-73
2023/06/30 19:50:10;;;;;;;1.17;1.08;;;26.00;78.90;;;;;;10790240;33;20005;-73
2023/06/30 19:56:29;;;;;;;1.60;1.12;;;25.90;79.10;;;;;;10788773;33;20031;-73
2023/06/30 20:02:31;;;;;;;2.37;1.48;;;25.80;79.00;;;;;;10789560;33;20020;-73
2023/06/30 20:08:32;;;;;;;2.47;1.67;;;25.80;79.20;;;;;;10788725;33;20033;-71
2023/06/30 20:14:35;;;;;;;1.52;1.42;;;25.50;78.90;;;;;;10788400;33;20054;-72
2023/06/30 20:20:36;;;;;;;3.80;1.87;;;25.40;79.50;;;;;;10786800;33;20063;-73
2023/06/30 20:26:38;;;;;;;2.92;1.92;;;25.40;79.30;;;;;;10803273;32;20341;-73
2023/06/30 20:32:40;;;;;;;6.82;2.50;;;25.30;79.20;;;;;;10943403;32;20019;-73
2023/06/30 20:38:42;;;;;;;3.90;1.75;;;25.10;79.40;;;;;;10943280;32;20015;-73
2023/06/30 20:44:44;;;;;;;3.35;2.05;;;25.00;79.50;;;;;;10943056;32;20409;-73
2023/06/30 20:50:46;;;;;;;4.25;2.05;;;25.00;79.40;;;;;;10942788;32;20015;-72
2023/06/30 20:56:51;;;;;;;3.25;2.00;;;25.10;79.40;;;;;;10941787;32;20042;-72
2023/06/30 21:02:53;;;;;;;2.95;1.98;;;25.00;79.60;;;;;;10939441;32;20023;-73
2023/06/30 21:08:55;;;;;;;3.33;2.25;;;24.80;79.60;;;;;;10938959;32;20019;-72
2023/06/30 21:14:57;;;;;;;3.72;2.78;;;24.80;79.70;;;;;;10943333;32;20420;-72
2023/06/30 21:21:00;;;;;;;6.60;2.78;;;24.90;79.80;;;;;;10941160;32;20037;-73
2023/06/30 21:27:02;;;;;;;4.20;2.45;;;24.80;80.60;;;;;;10942868;32;20023;-73
2023/06/30 21:33:04;;;;;;;2.45;1.65;;;24.60;81.20;;;;;;10942277;32;20061;-72
2023/06/30 21:39:06;;;;;;;4.30;2.65;;;24.60;81.30;;;;;;10941723;32;20007;-73
2023/06/30 21:45:09;;;;;;;5.15;2.15;;;24.50;81.50;;;;;;10942665;32;20047;-73
2023/06/30 21:51:11;;;;;;;4.12;1.67;;;24.40;81.80;;;;;;10942603;32;20041;-73
2023/06/30 21:57:13;;;;;;;3.42;2.10;;;24.60;81.60;;;;;;10941332;32;20023;-73
2023/06/30 22:03:15;;;;;;;1.48;1.15;;;24.60;81.20;;;;;;10941789;32;20007;-73
2023/06/30 22:09:17;;;;;;;3.62;2.30;;;24.50;81.30;;;;;;10940890;32;20073;-73
2023/06/30 22:15:21;;;;;;;4.85;2.62;;;24.60;81.30;;;;;;10941635;32;20011;-73
2023/06/30 22:21:23;;;;;;;5.32;2.40;;;24.70;80.80;;;;;;10949384;32;20337;-73
2023/06/30 22:27:26;;;;;;;3.37;2.12;;;24.60;81.50;;;;;;10911918;32;20028;-73
2023/06/30 22:33:28;;;;;;;3.58;2.70;;;24.60;81.30;;;;;;10793195;33;20021;-74
2023/06/30 22:39:30;;;;;;;3.12;2.15;;;24.40;81.20;;;;;;10792415;33;20032;-73
2023/06/30 22:45:32;;;;;;;7.10;3.75;;;24.00;82.30;;;;;;10793503;33;20314;-73
2023/06/30 22:51:34;;;;;;;4.53;2.60;;;24.10;82.60;;;;;;10793412;33;20024;-73
2023/06/30 22:57:36;;;;;;;3.78;2.70;;;24.20;82.20;;;;;;10792557;33;20016;-73
2023/06/30 23:03:42;;;;;;;3.60;2.35;;;24.30;81.90;;;;;;10792493;33;20043;-73
2023/06/30 23:09:44;;;;;;;3.05;2.10;;;24.30;81.80;;;;;;10792335;33;20296;-73
2023/06/30 23:15:46;;;;;;;3.72;2.37;;;24.30;81.80;;;;;;10793181;33;20008;-73
2023/06/30 23:21:48;;;;;;;3.42;2.28;;;24.40;82.10;;;;;;10788598;33;20025;-72
2023/06/30 23:27:54;;;;;;;5.97;4.50;;;24.30;82.50;;;;;;10840302;27;20039;-72
2023/06/30 23:33:56;;;;;;;5.90;4.43;;;24.30;82.20;;;;;;10946906;32;20049;-72
2023/06/30 23:39:58;;;;;;;5.45;4.32;;;24.10;82.20;;;;;;10944167;32;20188;-72
2023/06/30 23:46:00;;;;;;;6.00;4.12;;;24.00;82.10;;;;;;10945216;32;20018;-71
2023/06/30 23:52:02;;;;;;;6.72;5.40;;;23.90;82.20;;;;;;10945025;32;20053;-71
2023/06/30 23:58:04;;;;;;;7.37;5.50;;;23.90;82.20;;;;;;10945157;32;20022;-72
